^^
Station Historical Data
 
Daily Summary for July 29, 2015 Units:  English    Metric   Both
« Previous Day
Next Day »
Daily Weekly Monthly Yearly Custom
  Current: High: Low: Average:
Temperature: 81.9 °F 85.6 °F 73.7 °F 79.2 °F
Dew Point: 59.1 °F 75.7 °F 56.1 °F 68.4 °F
Humidity: 46% 96% 37% 74%
Wind Speed: 3.0mph 7.0mph 1.0mph 2.7mph
Wind Gust: 7.0mph 12.0mph - -
WindWest - - West
Pressure: 29.94 in 29.95 in 29.87 in -
Precipitation: 0.18 in      
Historical Graphs
 
 
Tabular Data for July 29, 2015
Time Temperature Dew Point Pressure Wind Wind Speed Wind Gust Humidity Rainfall Rate (Hourly)
00:19 79.6 °F 75.0 °F 29.89 in SW 1.0 mph 3.0 mph 86% 0.00 in
00:29 79.6 °F 75.4 °F 29.88 in SW 1.0 mph 2.0 mph 87% 0.00 in
00:39 79.6 °F 75.4 °F 29.88 in South 1.0 mph 5.0 mph 87% 0.00 in
00:49 79.5 °F 75.3 °F 29.87 in South 1.0 mph 2.0 mph 87% 0.00 in
00:59 79.4 °F 75.2 °F 29.87 in South 1.0 mph 3.0 mph 87% 0.00 in
01:09 79.4 °F 75.5 °F 29.87 in South 1.0 mph 2.0 mph 88% 0.00 in
01:29 79.6 °F 75.7 °F 29.88 in SSW 3.0 mph 4.0 mph 88% 0.00 in
01:39 79.7 °F 74.1 °F 29.90 in West 3.0 mph 9.0 mph 83% 0.00 in
01:49 78.3 °F 73.4 °F 29.91 in West 3.0 mph 8.0 mph 85% 0.02 in
01:59 76.4 °F 72.9 °F 29.89 in WNW 1.0 mph 4.0 mph 89% 0.06 in
02:09 75.3 °F 72.8 °F 29.88 in SSW 3.0 mph 5.0 mph 92% 0.03 in
02:19 74.8 °F 72.6 °F 29.88 in SSW 2.0 mph 5.0 mph 93% 0.01 in
02:29 74.7 °F 72.9 °F 29.87 in SW 3.0 mph 5.0 mph 94% 0.02 in
02:39 74.6 °F 72.8 °F 29.87 in SSW 1.0 mph 4.0 mph 94% 0.02 in
02:49 74.6 °F 73.1 °F 29.87 in SSW 2.0 mph 3.0 mph 95% 0.01 in
02:59 74.4 °F 72.9 °F 29.87 in SW 2.0 mph 5.0 mph 95% 0.01 in
03:09 74.4 °F 72.9 °F 29.87 in SSW 1.0 mph 3.0 mph 95% 0.00 in
03:19 74.3 °F 72.8 °F 29.88 in SSW 2.0 mph 4.0 mph 95% 0.00 in
03:29 74.3 °F 72.8 °F 29.88 in SSW 2.0 mph 4.0 mph 95% 0.00 in
03:39 74.3 °F 72.8 °F 29.89 in SSW 1.0 mph 3.0 mph 95% 0.00 in
03:49 74.3 °F 72.8 °F 29.90 in SSW 2.0 mph 3.0 mph 95% 0.00 in
03:59 74.2 °F 72.7 °F 29.90 in Calm   4.0 mph 95% 0.00 in
04:09 74.2 °F 72.7 °F 29.90 in Calm   3.0 mph 95% 0.00 in
04:19 74.3 °F 72.8 °F 29.90 in SSW 1.0 mph 4.0 mph 95% 0.00 in
04:29 74.3 °F 72.8 °F 29.89 in SSW 1.0 mph 2.0 mph 95% 0.00 in
04:39 74.2 °F 72.7 °F 29.88 in SSW 1.0 mph 3.0 mph 95% 0.00 in
04:49 74.1 °F 72.6 °F 29.88 in SSW 1.0 mph 4.0 mph 95% 0.00 in
04:59 74.0 °F 72.5 °F 29.88 in Calm   3.0 mph 95% 0.00 in
05:09 74.0 °F 72.8 °F 29.87 in Calm   2.0 mph 96% 0.00 in
05:19 74.0 °F 72.8 °F 29.88 in South 1.0 mph 1.0 mph 96% 0.00 in
05:29 74.0 °F 72.8 °F 29.88 in Calm   1.0 mph 96% 0.00 in
05:39 73.9 °F 72.7 °F 29.88 in South 1.0 mph 2.0 mph 96% 0.00 in
05:49 73.9 °F 72.7 °F 29.89 in South 1.0 mph 2.0 mph 96% 0.00 in
05:59 73.9 °F 72.7 °F 29.89 in South 1.0 mph 2.0 mph 96% 0.00 in
06:09 73.9 °F 72.7 °F 29.89 in South 1.0 mph 2.0 mph 96% 0.00 in
06:19 73.9 °F 72.7 °F 29.90 in Calm   2.0 mph 96% 0.00 in
06:29 73.8 °F 72.6 °F 29.90 in South 1.0 mph 2.0 mph 96% 0.00 in
06:39 73.7 °F 72.5 °F 29.90 in South 1.0 mph 2.0 mph 96% 0.00 in
06:49 73.7 °F 72.5 °F 29.90 in Calm   2.0 mph 96% 0.00 in
06:59 73.7 °F 72.5 °F 29.90 in South 1.0 mph 2.0 mph 96% 0.00 in
07:09 73.7 °F 72.5 °F 29.90 in South 1.0 mph 2.0 mph 96% 0.00 in
07:29 73.7 °F 72.5 °F 29.91 in WSW 2.0 mph 3.0 mph 96% 0.00 in
07:39 73.8 °F 72.6 °F 29.91 in WSW 1.0 mph 3.0 mph 96% 0.00 in
07:49 73.8 °F 72.6 °F 29.91 in West 1.0 mph 3.0 mph 96% 0.00 in
07:59 74.0 °F 72.5 °F 29.91 in West 2.0 mph 3.0 mph 95% 0.00 in
08:09 74.2 °F 72.7 °F 29.91 in West 2.0 mph 3.0 mph 95% 0.00 in
08:19 74.4 °F 73.2 °F 29.90 in SW 1.0 mph 2.0 mph 96% 0.00 in
08:29 74.6 °F 73.1 °F 29.91 in West 2.0 mph 4.0 mph 95% 0.00 in
08:39 74.9 °F 73.4 °F 29.91 in NW 1.0 mph 2.0 mph 95% 0.00 in
08:49 75.2 °F 73.6 °F 29.90 in NW 1.0 mph 2.0 mph 95% 0.00 in
08:59 75.9 °F 74.3 °F 29.90 in WNW 1.0 mph 4.0 mph 95% 0.00 in
09:09 76.6 °F 74.4 °F 29.91 in WNW 3.0 mph 7.0 mph 93% 0.00 in
09:19 76.8 °F 74.3 °F 29.91 in WNW 2.0 mph 4.0 mph 92% 0.00 in
09:29 76.9 °F 74.4 °F 29.91 in WNW 2.0 mph 9.0 mph 92% 0.00 in
09:39 77.2 °F 74.7 °F 29.92 in WNW 2.0 mph 4.0 mph 92% 0.00 in
09:49 77.5 °F 74.7 °F 29.93 in West 3.0 mph 8.0 mph 91% 0.00 in
09:59 77.8 °F 74.6 °F 29.93 in WNW 2.0 mph 4.0 mph 90% 0.00 in
10:09 78.5 °F 75.3 °F 29.92 in WNW 2.0 mph 4.0 mph 90% 0.00 in
10:19 79.4 °F 75.6 °F 29.92 in NW 1.0 mph 4.0 mph 88% 0.00 in
10:29 80.1 °F 75.1 °F 29.93 in WNW 2.0 mph 4.0 mph 85% 0.00 in
10:49 79.9 °F 75.0 °F 29.94 in WNW 3.0 mph 9.0 mph 85% 0.00 in
10:59 79.8 °F 74.2 °F 29.94 in NW 3.0 mph 9.0 mph 83% 0.00 in
11:09 79.9 °F 73.9 °F 29.94 in WNW 3.0 mph 7.0 mph 82% 0.00 in
11:19 80.9 °F 73.8 °F 29.94 in WNW 3.0 mph 6.0 mph 79% 0.00 in
11:29 81.5 °F 72.4 °F 29.94 in NW 3.0 mph 8.0 mph 74% 0.00 in
11:39 82.0 °F 72.5 °F 29.94 in NW 3.0 mph 8.0 mph 73% 0.00 in
11:49 82.3 °F 70.7 °F 29.94 in NW 3.0 mph 10.0 mph 68% 0.00 in
11:59 82.9 °F 66.1 °F 29.94 in WNW 3.0 mph 8.0 mph 57% 0.00 in
12:09 83.2 °F 65.9 °F 29.94 in WNW 3.0 mph 12.0 mph 56% 0.00 in
12:29 83.4 °F 66.1 °F 29.95 in WNW 2.0 mph 7.0 mph 56% 0.00 in
12:39 83.9 °F 62.7 °F 29.95 in WNW 2.0 mph 10.0 mph 49% 0.00 in
12:49 84.3 °F 63.7 °F 29.95 in WNW 2.0 mph 6.0 mph 50% 0.00 in
12:59 84.4 °F 62.6 °F 29.95 in WNW 3.0 mph 8.0 mph 48% 0.00 in
13:09 84.5 °F 63.2 °F 29.94 in WNW 3.0 mph 9.0 mph 49% 0.00 in
13:19 84.5 °F 61.4 °F 29.95 in WNW 3.0 mph 9.0 mph 46% 0.00 in
13:29 84.3 °F 62.5 °F 29.95 in WNW 5.0 mph 8.0 mph 48% 0.00 in
13:39 84.2 °F 63.5 °F 29.95 in NW 1.0 mph 9.0 mph 50% 0.00 in
13:49 84.6 °F 65.1 °F 29.95 in NW 2.0 mph 8.0 mph 52% 0.00 in
13:59 85.2 °F 62.7 °F 29.95 in WNW 3.0 mph 6.0 mph 47% 0.00 in
14:09 85.4 °F 61.0 °F 29.95 in WNW 5.0 mph 8.0 mph 44% 0.00 in
14:19 85.6 °F 57.8 °F 29.95 in WNW 7.0 mph 9.0 mph 39% 0.00 in
14:29 85.6 °F 57.8 °F 29.95 in NW 3.0 mph 10.0 mph 39% 0.00 in
14:39 85.6 °F 60.5 °F 29.95 in WNW 5.0 mph 10.0 mph 43% 0.00 in
14:49 85.4 °F 59.0 °F 29.95 in West 6.0 mph 8.0 mph 41% 0.00 in
14:59 85.3 °F 58.2 °F 29.95 in West 6.0 mph 10.0 mph 40% 0.00 in
15:09 85.4 °F 59.0 °F 29.94 in West 3.0 mph 9.0 mph 41% 0.00 in
15:19 85.5 °F 57.7 °F 29.94 in WNW 7.0 mph 10.0 mph 39% 0.00 in
15:29 85.1 °F 58.1 °F 29.94 in WNW 6.0 mph 12.0 mph 40% 0.00 in
15:39 85.3 °F 56.1 °F 29.94 in WNW 5.0 mph 12.0 mph 37% 0.00 in
15:49 85.4 °F 56.2 °F 29.94 in WNW 5.0 mph 12.0 mph 37% 0.00 in
16:09 85.2 °F 58.8 °F 29.94 in WNW 5.0 mph 10.0 mph 41% 0.00 in
16:19 84.7 °F 57.0 °F 29.94 in WNW 6.0 mph 9.0 mph 39% 0.00 in
16:29 84.3 °F 56.6 °F 29.94 in WNW 3.0 mph 10.0 mph 39% 0.00 in
16:39 84.3 °F 58.0 °F 29.94 in WNW 6.0 mph 9.0 mph 41% 0.00 in
16:49 84.1 °F 57.8 °F 29.94 in WNW 6.0 mph 12.0 mph 41% 0.00 in
16:59 84.0 °F 59.1 °F 29.94 in West 5.0 mph 10.0 mph 43% 0.00 in
17:09 83.7 °F 58.8 °F 29.94 in WNW 5.0 mph 12.0 mph 43% 0.00 in
17:19 83.6 °F 57.4 °F 29.94 in West 7.0 mph 10.0 mph 41% 0.00 in
17:39 83.6 °F 58.7 °F 29.94 in West 3.0 mph 6.0 mph 43% 0.00 in
17:49 83.4 °F 58.6 °F 29.94 in West 5.0 mph 10.0 mph 43% 0.00 in
17:59 83.3 °F 58.5 °F 29.94 in WNW 6.0 mph 12.0 mph 43% 0.00 in
18:09 83.1 °F 58.9 °F 29.94 in West 5.0 mph 10.0 mph 44% 0.00 in
18:19 82.9 °F 58.7 °F 29.93 in WNW 2.0 mph 8.0 mph 44% 0.00 in
18:29 82.7 °F 58.6 °F 29.94 in WNW 3.0 mph 10.0 mph 44% 0.00 in
18:39 82.4 °F 58.3 °F 29.93 in WNW 5.0 mph 10.0 mph 44% 0.00 in
18:49 82.2 °F 58.7 °F 29.93 in West 3.0 mph 8.0 mph 45% 0.00 in
18:59 81.9 °F 59.1 °F 29.94 in West 3.0 mph 7.0 mph 46% 0.00 in
jolietwx - Weather
Compliments of Weather Underground